Time;durP1;ratioP1;P1;durP2;ratioP2;P2;SDS_P1;SDS_P2;PMS_P1;PMS_P2;Temp;Humidity;BMP_temperature;BMP_pressure;BME280_temperature;BME280_humidity;BME280_pressure;Samples;Min_cycle;Max_cycle;Signal;HPM_P1;HPM_P2
2021/11/12 21:48:37;;;;;;;2.33;2.13;;;19.30;64.80;;;;;;5047136;28;20104;-28
2021/11/12 21:51:03;;;;;;;2.38;1.98;;;19.30;64.80;;;;;;5048339;28;20028;-27
2021/11/12 21:53:30;;;;;;;2.03;1.83;;;19.30;64.90;;;;;;5049125;28;20386;-32
2021/11/12 21:55:56;;;;;;;6.30;1.98;;;19.30;65.00;;;;;;5046330;28;20028;-25
2021/11/12 21:58:21;;;;;;;3.05;1.73;;;19.30;64.80;;;;;;5036122;28;20031;-30
2021/11/12 22:00:48;;;;;;;2.42;1.95;;;19.30;64.80;;;;;;5036114;28;20040;-27
2021/11/12 22:03:14;;;;;;;3.88;2.70;;;19.30;65.00;;;;;;5035696;28;20030;-28
2021/11/12 22:05:40;;;;;;;5.40;2.10;;;19.20;65.40;;;;;;5035655;28;20025;-31
2021/11/12 22:08:05;;;;;;;4.68;1.95;;;19.30;65.30;;;;;;5033825;28;20017;-32
2021/11/12 22:10:31;;;;;;;4.82;2.00;;;19.30;65.20;;;;;;5036029;28;20020;-26
2021/11/12 22:12:57;;;;;;;2.30;2.10;;;19.20;65.10;;;;;;5035626;28;20649;-28
2021/11/12 22:15:22;;;;;;;2.00;1.80;;;19.30;65.00;;;;;;5034784;28;20041;-28
2021/11/12 22:17:48;;;;;;;2.88;2.13;;;19.30;64.90;;;;;;5018034;28;20520;-24
2021/11/12 22:20:15;;;;;;;2.65;1.88;;;19.30;64.80;;;;;;5024595;28;20044;-28
2021/11/12 22:22:41;;;;;;;1.88;1.60;;;19.30;64.80;;;;;;5019758;28;20081;-26
2021/11/12 22:25:07;;;;;;;2.20;1.73;;;19.30;64.90;;;;;;5008790;28;20057;-28
2021/11/12 22:27:33;;;;;;;3.28;1.70;;;19.30;65.10;;;;;;5015864;28;20024;-26
2021/11/12 22:29:58;;;;;;;1.95;1.55;;;19.30;64.90;;;;;;5016011;28;20021;-28
2021/11/12 22:32:24;;;;;;;2.78;1.52;;;19.30;64.80;;;;;;5015850;28;20084;-27
2021/11/12 22:34:50;;;;;;;1.92;1.42;;;19.30;64.70;;;;;;5015724;28;20026;-27
2021/11/12 22:37:16;;;;;;;2.35;1.60;;;19.30;64.50;;;;;;5012144;28;20046;-31
2021/11/12 22:39:42;;;;;;;2.25;1.70;;;19.30;64.40;;;;;;4997244;28;20033;-32
2021/11/12 22:42:09;;;;;;;2.17;1.73;;;19.30;64.40;;;;;;5011717;28;20370;-33
2021/11/12 22:44:35;;;;;;;1.83;1.67;;;19.20;64.40;;;;;;5013486;28;20504;-29
2021/11/12 22:47:00;;;;;;;1.80;1.70;;;19.20;64.50;;;;;;5014440;28;20014;-28
2021/11/12 22:49:26;;;;;;;5.07;1.80;;;19.20;64.40;;;;;;4986060;28;20104;-32
2021/11/12 22:51:52;;;;;;;1.50;1.40;;;19.20;64.40;;;;;;5011249;28;20394;-31
2021/11/12 22:54:17;;;;;;;2.42;1.80;;;19.20;64.50;;;;;;5015686;28;20022;-29
2021/11/12 22:56:43;;;;;;;1.70;1.60;;;19.20;64.50;;;;;;5016673;28;20105;-30
2021/11/12 22:59:08;;;;;;;2.20;1.65;;;19.20;64.40;;;;;;5008973;28;20052;-23
2021/11/12 23:01:34;;;;;;;1.38;1.27;;;19.20;64.40;;;;;;5013709;28;20490;-30
2021/11/12 23:04:00;;;;;;;2.78;1.85;;;19.20;64.40;;;;;;5016437;28;20022;-26
2021/11/12 23:06:25;;;;;;;1.40;1.30;;;19.20;64.30;;;;;;5021728;28;20451;-28
2021/11/12 23:08:51;;;;;;;3.00;1.50;;;19.20;64.30;;;;;;5011493;28;20022;-34
2021/11/12 23:11:17;;;;;;;2.33;1.30;;;19.20;64.30;;;;;;5007042;28;20060;-30
2021/11/12 23:13:43;;;;;;;1.50;1.40;;;19.20;64.30;;;;;;5016538;28;20014;-27
2021/11/12 23:16:09;;;;;;;2.38;1.60;;;19.20;64.30;;;;;;5016505;28;20034;-32
2021/11/12 23:18:35;;;;;;;3.95;1.48;;;19.10;64.20;;;;;;5031558;28;20108;-30
2021/11/12 23:21:01;;;;;;;1.40;1.30;;;19.10;64.30;;;;;;5003311;28;20479;-31
2021/11/12 23:23:27;;;;;;;1.92;1.30;;;19.20;64.30;;;;;;5016065;28;20044;-29
2021/11/12 23:25:53;;;;;;;1.52;1.10;;;19.10;64.20;;;;;;5015989;28;20030;-25
2021/11/12 23:28:19;;;;;;;4.03;1.60;;;19.10;64.20;;;;;;5016692;28;20034;-29
2021/11/12 23:30:45;;;;;;;1.67;1.52;;;19.20;64.20;;;;;;4996315;28;20034;-28
2021/11/12 23:33:10;;;;;;;1.42;1.15;;;19.10;64.20;;;;;;5016046;28;20026;-24
2021/11/12 23:35:36;;;;;;;1.52;1.10;;;19.10;64.20;;;;;;5015265;28;20061;-27
2021/11/12 23:38:01;;;;;;;1.25;1.10;;;19.10;64.20;;;;;;5006969;28;20121;-25
2021/11/12 23:40:27;;;;;;;2.58;1.48;;;19.10;64.10;;;;;;4997608;28;20036;-28
2021/11/12 23:42:53;;;;;;;1.40;1.20;;;19.10;64.10;;;;;;5009662;28;20036;-33
2021/11/12 23:45:19;;;;;;;1.90;1.70;;;19.20;64.20;;;;;;5017385;28;20054;-27
2021/11/12 23:47:45;;;;;;;2.15;1.30;;;19.10;64.00;;;;;;5017570;28;20101;-27
2021/11/12 23:50:11;;;;;;;1.45;1.35;;;19.10;64.00;;;;;;5001960;28;20049;-30
2021/11/12 23:52:37;;;;;;;1.33;1.23;;;19.20;64.00;;;;;;5016390;28;20033;-29
2021/11/12 23:55:04;;;;;;;1.27;1.17;;;19.10;64.00;;;;;;5016258;28;20021;-26
2021/11/12 23:57:30;;;;;;;1.30;1.20;;;19.10;64.00;;;;;;5017603;28;20108;-29
2021/11/12 23:59:56;;;;;;;1.70;1.60;;;19.20;64.00;;;;;;4999027;28;20065;-28
